Bookmark and Share
Track history (hours):
 

Barkald

Last reported at 2014-Mar-29 22:20 UTC. Time now 2014-Apr-17 09:44 UTC.
Position N 39°02' W 071°11'.
Warning: this ship's position is 18 days out of date.

Length 189 m; draft 6.3 m.

MMSI: 538002409.

NotesDate/timePositionNaut miles runAvg speedWind from/ knotsBaromVisibWave heightAir tempDewpointWater temp
2014-Mar-29 22:20N 39°02' W 071°11'1012.5
2014-Mar-29 21:33N 39°12' W 071°13'1312.1
2014-Mar-29 20:30N 39°25' W 071°15'1212.4
2014-Mar-29 19:33N 39°36' W 071°17'2912.7
2014-Mar-29 17:18N 40°05' W 071°22'1013.0
2014-Mar-29 16:33N 40°15' W 071°23'1313.4
2014-Mar-29 15:33N 40°28' W 071°24'1313.0
2014-Mar-29 14:33N 40°41' W 071°25'10 9.9
2014-Mar-29 13:33N 40°51' W 071°26'10 9.9
2014-Mar-29 12:33N 41°01' W 071°27'10 9.8
2014-Mar-29 11:33N 41°10' W 071°29'8 7.5
2014-Mar-29 10:33N 41°17' W 071°35'1312.7
2014-Mar-29 09:34N 41°14' W 071°51'1515.0
2014-Mar-29 08:33N 41°14' W 072°11'1615.9
2014-Mar-29 07:34N 41°10' W 072°32'1615.8
2014-Mar-29 06:33N 41°07' W 072°52'1515.0
2014-Mar-29 05:33N 41°05' W 073°12'2 1.7
2014-Mar-29 04:32N 41°03' W 073°13'0 0.1
2014-Mar-29 03:32N 41°03' W 073°13'0 0.0
2014-Mar-29 02:32N 41°03' W 073°13'0 0.1
2014-Mar-29 01:32N 41°03' W 073°13'0 0.1
2014-Mar-29 00:32N 41°03' W 073°13'0 0.0
2014-Mar-28 23:32N 41°03' W 073°13'0 0.1
2014-Mar-28 21:29N 41°03' W 073°13'0 0.0
2014-Mar-28 20:23N 41°03' W 073°13'0 0.0
2014-Mar-28 19:26N 41°03' W 073°13'0 0.0
2014-Mar-28 18:29N 41°03' W 073°13'0 0.0
2014-Mar-28 17:26N 41°03' W 073°13'0 0.0
2014-Mar-28 16:26N 41°03' W 073°13'0 0.0
2014-Mar-28 15:32N 41°03' W 073°13'0 0.0
2014-Mar-28 14:32N 41°03' W 073°13'0 0.0
2014-Mar-28 13:29N 41°03' W 073°13'0 0.1
2014-Mar-28 12:32N 41°03' W 073°13'0 0.1
2014-Mar-28 11:32N 41°03' W 073°13'0 0.1
2014-Mar-28 10:23N 41°03' W 073°13'0 0.0
2014-Mar-28 09:32N 41°03' W 073°13'0 0.1
2014-Mar-28 08:32N 41°03' W 073°13'0 0.0
2014-Mar-28 07:32N 41°03' W 073°13'0 0.0
2014-Mar-28 06:23N 41°03' W 073°13'0 0.0
2014-Mar-28 05:32N 41°03' W 073°13'0 0.0
2014-Mar-28 04:23N 41°03' W 073°13'0 0.0
2014-Mar-28 03:32N 41°03' W 073°13'0 0.0
2014-Mar-28 02:32N 41°03' W 073°13'0 0.0
2014-Mar-28 01:29N 41°03' W 073°13'0 0.0
2014-Mar-28 00:32N 41°03' W 073°13'0 0.0
2014-Mar-27 23:29N 41°03' W 073°13'0 0.0
2014-Mar-27 22:29N 41°03' W 073°13'0 0.1
2014-Mar-27 21:32N 41°03' W 073°13'0 0.1
2014-Mar-27 20:29N 41°03' W 073°13'0 0.0
2014-Mar-27 19:32N 41°03' W 073°13'0 0.0
2014-Mar-27 18:33N 41°03' W 073°13'0 0.0
2014-Mar-27 17:32N 41°03' W 073°13'0 0.1
2014-Mar-27 16:30N 41°03' W 073°13'0 0.0
2014-Mar-27 15:20N 41°03' W 073°13'0 0.1
2014-Mar-27 14:29N 41°03' W 073°13'0 0.1
2014-Mar-27 13:32N 41°03' W 073°13'0 0.0
2014-Mar-27 12:32N 41°03' W 073°13'0 0.0
2014-Mar-27 11:32N 41°03' W 073°13'0 0.0
2014-Mar-27 10:32N 41°03' W 073°13'0 0.0
2014-Mar-27 09:32N 41°03' W 073°13'0 0.0
2014-Mar-27 08:32N 41°03' W 073°13'0 0.0
2014-Mar-27 07:32N 41°03' W 073°13'0 0.0
2014-Mar-27 06:32N 41°03' W 073°13'0 0.0
2014-Mar-27 05:32N 41°03' W 073°13'0 0.0
2014-Mar-27 04:32N 41°03' W 073°13'0 0.0
2014-Mar-27 03:32N 41°03' W 073°13'0 0.0
2014-Mar-27 02:32N 41°03' W 073°13'0 0.0
2014-Mar-27 01:29N 41°03' W 073°13'0 0.1
2014-Mar-27 00:29N 41°03' W 073°13'0 0.0
2014-Mar-26 23:29N 41°03' W 073°13'0 0.0
2014-Mar-26 20:20N 41°03' W 073°13'0 0.0
2014-Mar-26 19:32N 41°03' W 073°13'0 0.0
2014-Mar-26 17:32N 41°03' W 073°13'0 0.0
2014-Mar-26 16:32N 41°03' W 073°13'0 0.0
2014-Mar-26 15:14N 41°03' W 073°13'0 0.1
2014-Mar-26 14:29N 41°03' W 073°13'0 0.0
2014-Mar-26 13:26N 41°03' W 073°13'0 0.0
2014-Mar-26 12:29N 41°03' W 073°13'0 0.1
2014-Mar-26 11:32N 41°03' W 073°14'0 0.0
2014-Mar-26 10:32N 41°03' W 073°14'0 0.0
2014-Mar-26 09:29N 41°03' W 073°14'0 0.0
2014-Mar-26 08:32N 41°03' W 073°14'0 0.0
2014-Mar-26 07:32N 41°03' W 073°14'0 0.0
2014-Mar-26 00:32N 41°03' W 073°14'0 0.0
2014-Mar-25 23:29N 41°03' W 073°14'0 0.1
2014-Mar-25 22:32N 41°03' W 073°14'0 0.1
2014-Mar-25 21:32N 41°03' W 073°14'0 0.1
2014-Mar-25 20:26N 41°03' W 073°14'0 0.0
2014-Mar-25 19:32N 41°03' W 073°14'0 0.0
2014-Mar-25 17:29N 41°03' W 073°13'0 0.1
2014-Mar-25 16:32N 41°03' W 073°13'0 0.0
2014-Mar-25 15:32N 41°03' W 073°13'0 0.0
2014-Mar-25 14:32N 41°03' W 073°13'0 0.0
2014-Mar-25 13:32N 41°03' W 073°13'0 0.0
2014-Mar-25 12:29N 41°03' W 073°14'0 0.0
2014-Mar-25 11:32N 41°03' W 073°14'0 0.1
2014-Mar-25 10:32N 41°03' W 073°14'0 0.1
2014-Mar-25 09:32N 41°03' W 073°14'0 0.0
2014-Mar-25 08:32N 41°03' W 073°14'0 0.0
2014-Mar-25 07:29N 41°03' W 073°14'0 0.0
2014-Mar-25 06:32N 41°03' W 073°14'0 0.1
2014-Mar-25 05:29N 41°03' W 073°13'0 0.0
2014-Mar-25 04:32N 41°03' W 073°13'0 0.0
2014-Mar-25 03:32N 41°03' W 073°13'0 0.0
2014-Mar-25 02:29N 41°03' W 073°13'0 0.0
2014-Mar-25 01:32N 41°03' W 073°13'0 0.0
2014-Mar-24 16:59N 41°03' W 073°13'1 0.0
2014-Mar-22 20:27N 41°04' W 073°15'0 0.2
2014-Mar-22 20:24N 41°04' W 073°15'0 0.1
2014-Mar-22 17:33N 41°04' W 073°15'0 0.0
2014-Mar-22 14:33N 41°04' W 073°15'0 0.1
2014-Mar-22 13:30N 41°04' W 073°15'0 0.0
2014-Mar-22 12:33N 41°04' W 073°15'0 0.1
2014-Mar-22 11:33N 41°04' W 073°15'0 0.0
2014-Mar-22 10:30N 41°04' W 073°15'0 0.1
2014-Mar-22 09:33N 41°04' W 073°15'0 0.1
2014-Mar-22 08:30N 41°04' W 073°15'0 0.1
2014-Mar-22 07:33N 41°04' W 073°15'0 0.0
2014-Mar-22 06:33N 41°04' W 073°15'0 0.0
2014-Mar-22 05:33N 41°04' W 073°15'0 0.0
2014-Mar-22 04:33N 41°04' W 073°15'0 0.0
2014-Mar-22 03:33N 41°04' W 073°15'0 0.2
2014-Mar-22 02:33N 41°04' W 073°15'0 0.1
2014-Mar-22 01:30N 41°04' W 073°15'0 0.0
2014-Mar-22 00:33N 41°04' W 073°15'0 0.0
2014-Mar-21 23:33N 41°04' W 073°15'0 0.0
2014-Mar-21 19:12N 41°04' W 073°15'0 0.1
2014-Mar-21 18:30N 41°04' W 073°15'0 0.0
2014-Mar-21 17:33N 41°04' W 073°15'0 0.1
2014-Mar-21 16:27N 41°04' W 073°15'0 0.1
2014-Mar-21 15:33N 41°04' W 073°15'0 0.0
2014-Mar-21 14:33N 41°04' W 073°15'0 0.1
2014-Mar-21 13:18N 41°04' W 073°15'0 0.0
2014-Mar-21 12:21N 41°04' W 073°15'0 0.0
2014-Mar-21 11:30N 41°04' W 073°15'0 0.0
2014-Mar-21 10:33N 41°04' W 073°15'0 0.0
2014-Mar-21 09:33N 41°04' W 073°15'0 0.0
2014-Mar-21 08:30N 41°04' W 073°15'0 0.0
2014-Mar-21 07:30N 41°04' W 073°15'0 0.0
2014-Mar-21 06:33N 41°04' W 073°15'0 0.0
2014-Mar-21 05:30N 41°04' W 073°15'0 0.0
2014-Mar-21 04:24N 41°04' W 073°15'0 0.0
2014-Mar-21 03:33N 41°04' W 073°15'0 0.0
2014-Mar-21 01:33N 41°04' W 073°15'0 0.0
2014-Mar-21 00:33N 41°04' W 073°15'0 0.0
2014-Mar-20 20:33N 41°04' W 073°15'0 0.0
2014-Mar-20 19:33N 41°04' W 073°15'0 0.0
2014-Mar-20 18:33N 41°04' W 073°15'0 0.1
2014-Mar-20 17:33N 41°04' W 073°15'0 0.0
2014-Mar-20 16:33N 41°04' W 073°15'0 0.2
2014-Mar-20 15:27N 41°04' W 073°15'0 0.1
2014-Mar-20 13:33N 41°04' W 073°15'0 0.0
2014-Mar-20 12:30N 41°04' W 073°15'0 0.0
2014-Mar-20 11:33N 41°04' W 073°15'0 0.0
2014-Mar-20 10:30N 41°04' W 073°15'0 0.0
2014-Mar-20 09:33N 41°04' W 073°15'0 0.1
2014-Mar-20 08:33N 41°04' W 073°15'0 0.2
2014-Mar-20 07:33N 41°04' W 073°15'0 0.0
2014-Mar-20 06:33N 41°04' W 073°15'0 0.0
2014-Mar-20 05:30N 41°04' W 073°15'0 0.0
2014-Mar-20 04:33N 41°04' W 073°15'0 0.0
2014-Mar-20 03:33N 41°04' W 073°15'0 0.0
2014-Mar-20 02:30N 41°04' W 073°15'0 0.0
2014-Mar-20 01:30N 41°04' W 073°15'0 0.0
2014-Mar-20 00:33N 41°04' W 073°15'0 0.0
2014-Mar-19 23:30N 41°04' W 073°15'0 0.0
2014-Mar-19 22:33N 41°04' W 073°15'  

Dump ship's entire track history

sailing weather and tide predictions

Barkald — V7IM6 — position and weather